sensor_id;sensor_type;location;lat;lon;timestamp;P1;durP1;ratioP1;P2;durP2;ratioP2
3949;SDS011;53057;50.988;6.314;2023-02-01T00:00:13;23.97;;;11.10;;
3949;SDS011;53057;50.988;6.314;2023-02-01T00:02:40;32.80;;;9.07;;
3949;SDS011;53057;50.988;6.314;2023-02-01T00:05:08;36.80;;;10.97;;
3949;SDS011;53057;50.988;6.314;2023-02-01T00:07:35;26.40;;;8.93;;
3949;SDS011;53057;50.988;6.314;2023-02-01T00:10:02;28.57;;;8.00;;
3949;SDS011;53057;50.988;6.314;2023-02-01T00:12:30;32.47;;;10.43;;
3949;SDS011;53057;50.988;6.314;2023-02-01T00:14:57;24.27;;;7.13;;
3949;SDS011;53057;50.988;6.314;2023-02-01T00:17:24;34.07;;;7.80;;
3949;SDS011;53057;50.988;6.314;2023-02-01T00:19:51;13.33;;;6.40;;
3949;SDS011;53057;50.988;6.314;2023-02-01T00:22:17;19.60;;;8.43;;
3949;SDS011;53057;50.988;6.314;2023-02-01T00:24:44;26.63;;;7.67;;
3949;SDS011;53057;50.988;6.314;2023-02-01T00:27:11;14.80;;;6.83;;
3949;SDS011;53057;50.988;6.314;2023-02-01T00:29:39;21.93;;;7.90;;
3949;SDS011;53057;50.988;6.314;2023-02-01T00:32:06;22.80;;;8.47;;
3949;SDS011;53057;50.988;6.314;2023-02-01T00:34:32;13.63;;;5.40;;
3949;SDS011;53057;50.988;6.314;2023-02-01T00:36:59;20.43;;;6.77;;
3949;SDS011;53057;50.988;6.314;2023-02-01T00:39:26;16.57;;;6.60;;
3949;SDS011;53057;50.988;6.314;2023-02-01T00:41:53;19.87;;;6.57;;
3949;SDS011;53057;50.988;6.314;2023-02-01T00:44:19;26.80;;;6.80;;
3949;SDS011;53057;50.988;6.314;2023-02-01T00:46:47;16.73;;;5.53;;
3949;SDS011;53057;50.988;6.314;2023-02-01T00:49:13;14.23;;;5.67;;
3949;SDS011;53057;50.988;6.314;2023-02-01T00:51:40;24.83;;;6.33;;
3949;SDS011;53057;50.988;6.314;2023-02-01T00:54:07;15.53;;;6.30;;
3949;SDS011;53057;50.988;6.314;2023-02-01T00:56:33;15.60;;;6.13;;
3949;SDS011;53057;50.988;6.314;2023-02-01T00:59:00;10.23;;;6.00;;
3949;SDS011;53057;50.988;6.314;2023-02-01T01:01:26;27.60;;;7.10;;
3949;SDS011;53057;50.988;6.314;2023-02-01T01:03:58;20.63;;;7.47;;
3949;SDS011;53057;50.988;6.314;2023-02-01T01:06:27;13.53;;;5.63;;
3949;SDS011;53057;50.988;6.314;2023-02-01T01:08:54;23.70;;;7.40;;
3949;SDS011;53057;50.988;6.314;2023-02-01T01:11:23;16.20;;;6.97;;
3949;SDS011;53057;50.988;6.314;2023-02-01T01:13:50;15.07;;;5.80;;
3949;SDS011;53057;50.988;6.314;2023-02-01T01:16:18;30.70;;;8.37;;
3949;SDS011;53057;50.988;6.314;2023-02-01T01:18:45;34.73;;;8.20;;
3949;SDS011;53057;50.988;6.314;2023-02-01T01:21:12;36.00;;;10.77;;
3949;SDS011;53057;50.988;6.314;2023-02-01T01:23:39;35.07;;;10.27;;
3949;SDS011;53057;50.988;6.314;2023-02-01T01:26:07;31.37;;;9.60;;
3949;SDS011;53057;50.988;6.314;2023-02-01T01:28:33;26.80;;;11.07;;
3949;SDS011;53057;50.988;6.314;2023-02-01T01:31:00;30.40;;;9.87;;
3949;SDS011;53057;50.988;6.314;2023-02-01T01:33:27;27.37;;;9.07;;
3949;SDS011;53057;50.988;6.314;2023-02-01T01:35:53;21.33;;;9.07;;
3949;SDS011;53057;50.988;6.314;2023-02-01T01:38:20;28.60;;;9.10;;
3949;SDS011;53057;50.988;6.314;2023-02-01T01:40:47;34.93;;;11.83;;
3949;SDS011;53057;50.988;6.314;2023-02-01T01:43:14;29.53;;;9.63;;
3949;SDS011;53057;50.988;6.314;2023-02-01T01:45:41;28.50;;;11.30;;
3949;SDS011;53057;50.988;6.314;2023-02-01T01:50:40;30.83;;;13.13;;
3949;SDS011;53057;50.988;6.314;2023-02-01T01:53:08;46.50;;;16.27;;
3949;SDS011;53057;50.988;6.314;2023-02-01T01:55:35;37.63;;;14.90;;
3949;SDS011;53057;50.988;6.314;2023-02-01T01:58:04;38.00;;;18.30;;
3949;SDS011;53057;50.988;6.314;2023-02-01T02:00:32;34.07;;;15.23;;
3949;SDS011;53057;50.988;6.314;2023-02-01T02:03:03;36.53;;;14.03;;
3949;SDS011;53057;50.988;6.314;2023-02-01T02:05:30;48.63;;;17.00;;
3949;SDS011;53057;50.988;6.314;2023-02-01T02:07:57;38.20;;;17.03;;
3949;SDS011;53057;50.988;6.314;2023-02-01T02:10:24;47.80;;;17.20;;
3949;SDS011;53057;50.988;6.314;2023-02-01T02:13:11;33.53;;;16.17;;
3949;SDS011;53057;50.988;6.314;2023-02-01T02:15:38;45.33;;;14.83;;
3949;SDS011;53057;50.988;6.314;2023-02-01T02:21:12;31.93;;;14.00;;
3949;SDS011;53057;50.988;6.314;2023-02-01T02:26:17;52.17;;;17.63;;
3949;SDS011;53057;50.988;6.314;2023-02-01T02:31:24;32.50;;;14.03;;
3949;SDS011;53057;50.988;6.314;2023-02-01T02:47:06;39.03;;;12.83;;
3949;SDS011;53057;50.988;6.314;2023-02-01T02:49:54;28.43;;;11.60;;
3949;SDS011;53057;50.988;6.314;2023-02-01T02:53:09;29.13;;;12.07;;
3949;SDS011;53057;50.988;6.314;2023-02-01T02:56:15;35.03;;;13.63;;
3949;SDS011;53057;50.988;6.314;2023-02-01T02:59:01;48.47;;;12.17;;
3949;SDS011;53057;50.988;6.314;2023-02-01T03:01:47;47.20;;;13.67;;
3949;SDS011;53057;50.988;6.314;2023-02-01T03:04:34;28.50;;;10.83;;
3949;SDS011;53057;50.988;6.314;2023-02-01T03:07:14;27.83;;;11.30;;
3949;SDS011;53057;50.988;6.314;2023-02-01T03:09:41;31.30;;;9.70;;
3949;SDS011;53057;50.988;6.314;2023-02-01T03:12:11;36.33;;;9.47;;
3949;SDS011;53057;50.988;6.314;2023-02-01T03:14:59;31.40;;;9.47;;
3949;SDS011;53057;50.988;6.314;2023-02-01T03:17:29;23.87;;;6.33;;
3949;SDS011;53057;50.988;6.314;2023-02-01T03:19:58;26.30;;;9.53;;
3949;SDS011;53057;50.988;6.314;2023-02-01T03:22:27;32.67;;;8.03;;
3949;SDS011;53057;50.988;6.314;2023-02-01T03:24:59;32.57;;;8.63;;
3949;SDS011;53057;50.988;6.314;2023-02-01T03:27:32;25.33;;;7.90;;
3949;SDS011;53057;50.988;6.314;2023-02-01T03:30:06;27.83;;;8.00;;
3949;SDS011;53057;50.988;6.314;2023-02-01T03:32:34;22.33;;;8.00;;
3949;SDS011;53057;50.988;6.314;2023-02-01T03:35:23;43.07;;;10.07;;
3949;SDS011;53057;50.988;6.314;2023-02-01T03:37:53;18.83;;;7.70;;
3949;SDS011;53057;50.988;6.314;2023-02-01T03:40:24;22.00;;;7.07;;
3949;SDS011;53057;50.988;6.314;2023-02-01T03:42:52;20.23;;;7.00;;
3949;SDS011;53057;50.988;6.314;2023-02-01T03:45:26;35.07;;;7.97;;
3949;SDS011;53057;50.988;6.314;2023-02-01T03:47:54;17.07;;;7.40;;
3949;SDS011;53057;50.988;6.314;2023-02-01T03:50:23;19.07;;;7.90;;
3949;SDS011;53057;50.988;6.314;2023-02-01T03:52:56;20.07;;;5.50;;
3949;SDS011;53057;50.988;6.314;2023-02-01T03:55:25;26.93;;;9.10;;
3949;SDS011;53057;50.988;6.314;2023-02-01T03:57:55;27.90;;;8.70;;
3949;SDS011;53057;50.988;6.314;2023-02-01T04:00:24;38.57;;;8.13;;
3949;SDS011;53057;50.988;6.314;2023-02-01T04:02:53;27.50;;;6.60;;
3949;SDS011;53057;50.988;6.314;2023-02-01T04:05:21;34.87;;;9.40;;
3949;SDS011;53057;50.988;6.314;2023-02-01T04:08:03;17.30;;;6.70;;
3949;SDS011;53057;50.988;6.314;2023-02-01T04:10:31;21.17;;;7.53;;
3949;SDS011;53057;50.988;6.314;2023-02-01T04:12:58;32.97;;;7.87;;
3949;SDS011;53057;50.988;6.314;2023-02-01T04:15:24;25.23;;;7.47;;
3949;SDS011;53057;50.988;6.314;2023-02-01T04:17:51;20.70;;;7.00;;
3949;SDS011;53057;50.988;6.314;2023-02-01T04:20:18;22.93;;;7.63;;
3949;SDS011;53057;50.988;6.314;2023-02-01T04:22:44;13.43;;;5.53;;
3949;SDS011;53057;50.988;6.314;2023-02-01T04:25:11;15.40;;;5.30;;
3949;SDS011;53057;50.988;6.314;2023-02-01T04:27:38;25.17;;;7.00;;
3949;SDS011;53057;50.988;6.314;2023-02-01T04:30:04;19.93;;;5.13;;
3949;SDS011;53057;50.988;6.314;2023-02-01T04:32:31;31.60;;;8.00;;
3949;SDS011;53057;50.988;6.314;2023-02-01T04:34:57;38.60;;;8.53;;
3949;SDS011;53057;50.988;6.314;2023-02-01T04:37:24;35.10;;;7.80;;
3949;SDS011;53057;50.988;6.314;2023-02-01T04:39:50;22.17;;;3.33;;
3949;SDS011;53057;50.988;6.314;2023-02-01T04:42:17;29.33;;;6.87;;
3949;SDS011;53057;50.988;6.314;2023-02-01T04:44:43;22.97;;;6.00;;
3949;SDS011;53057;50.988;6.314;2023-02-01T04:47:10;16.33;;;5.00;;
3949;SDS011;53057;50.988;6.314;2023-02-01T04:49:37;37.47;;;7.83;;
3949;SDS011;53057;50.988;6.314;2023-02-01T04:52:03;18.20;;;6.00;;
3949;SDS011;53057;50.988;6.314;2023-02-01T04:54:30;15.23;;;5.50;;
3949;SDS011;53057;50.988;6.314;2023-02-01T04:56:57;15.80;;;4.80;;
3949;SDS011;53057;50.988;6.314;2023-02-01T04:59:23;20.93;;;5.77;;
3949;SDS011;53057;50.988;6.314;2023-02-01T05:01:50;15.73;;;4.43;;
3949;SDS011;53057;50.988;6.314;2023-02-01T05:04:16;18.10;;;4.47;;
3949;SDS011;53057;50.988;6.314;2023-02-01T05:06:45;14.87;;;4.70;;
3949;SDS011;53057;50.988;6.314;2023-02-01T05:09:11;52.03;;;6.47;;
3949;SDS011;53057;50.988;6.314;2023-02-01T05:11:38;22.50;;;4.37;;
3949;SDS011;53057;50.988;6.314;2023-02-01T05:14:23;25.93;;;4.73;;
3949;SDS011;53057;50.988;6.314;2023-02-01T05:16:50;15.10;;;3.20;;
3949;SDS011;53057;50.988;6.314;2023-02-01T05:19:16;25.60;;;5.37;;
3949;SDS011;53057;50.988;6.314;2023-02-01T05:21:43;20.33;;;5.83;;
3949;SDS011;53057;50.988;6.314;2023-02-01T05:24:10;12.97;;;3.90;;
3949;SDS011;53057;50.988;6.314;2023-02-01T05:26:36;28.13;;;5.90;;
3949;SDS011;53057;50.988;6.314;2023-02-01T05:29:04;27.20;;;4.20;;
3949;SDS011;53057;50.988;6.314;2023-02-01T05:31:31;14.10;;;3.73;;
3949;SDS011;53057;50.988;6.314;2023-02-01T05:33:57;23.97;;;5.70;;
3949;SDS011;53057;50.988;6.314;2023-02-01T05:36:24;22.20;;;6.00;;
3949;SDS011;53057;50.988;6.314;2023-02-01T05:38:50;30.30;;;4.60;;
3949;SDS011;53057;50.988;6.314;2023-02-01T05:41:17;20.70;;;5.43;;
3949;SDS011;53057;50.988;6.314;2023-02-01T05:43:44;16.93;;;4.23;;
3949;SDS011;53057;50.988;6.314;2023-02-01T05:46:10;28.07;;;5.50;;
3949;SDS011;53057;50.988;6.314;2023-02-01T05:48:39;37.63;;;5.10;;
3949;SDS011;53057;50.988;6.314;2023-02-01T05:51:06;19.83;;;4.97;;
3949;SDS011;53057;50.988;6.314;2023-02-01T05:53:33;14.30;;;3.33;;
3949;SDS011;53057;50.988;6.314;2023-02-01T05:55:59;14.83;;;4.30;;
3949;SDS011;53057;50.988;6.314;2023-02-01T05:58:26;15.17;;;4.13;;
3949;SDS011;53057;50.988;6.314;2023-02-01T06:00:53;20.30;;;4.70;;
3949;SDS011;53057;50.988;6.314;2023-02-01T06:03:19;27.47;;;4.80;;
3949;SDS011;53057;50.988;6.314;2023-02-01T06:05:46;23.70;;;6.07;;
3949;SDS011;53057;50.988;6.314;2023-02-01T06:08:13;12.70;;;4.43;;
3949;SDS011;53057;50.988;6.314;2023-02-01T06:10:40;22.97;;;5.27;;
3949;SDS011;53057;50.988;6.314;2023-02-01T06:13:06;9.20;;;3.43;;
3949;SDS011;53057;50.988;6.314;2023-02-01T06:15:34;21.10;;;4.37;;
3949;SDS011;53057;50.988;6.314;2023-02-01T06:18:00;22.73;;;3.43;;
3949;SDS011;53057;50.988;6.314;2023-02-01T06:20:27;22.83;;;4.93;;
3949;SDS011;53057;50.988;6.314;2023-02-01T06:22:54;13.47;;;3.53;;
3949;SDS011;53057;50.988;6.314;2023-02-01T06:25:20;26.63;;;4.43;;
3949;SDS011;53057;50.988;6.314;2023-02-01T06:27:47;14.47;;;4.10;;
3949;SDS011;53057;50.988;6.314;2023-02-01T06:30:14;29.47;;;6.10;;
3949;SDS011;53057;50.988;6.314;2023-02-01T06:32:42;30.63;;;5.27;;
3949;SDS011;53057;50.988;6.314;2023-02-01T06:35:09;23.67;;;4.80;;
3949;SDS011;53057;50.988;6.314;2023-02-01T06:37:42;29.70;;;5.60;;
3949;SDS011;53057;50.988;6.314;2023-02-01T06:40:09;47.17;;;8.63;;
3949;SDS011;53057;50.988;6.314;2023-02-01T06:42:36;19.07;;;4.07;;
3949;SDS011;53057;50.988;6.314;2023-02-01T06:45:03;18.40;;;4.53;;
3949;SDS011;53057;50.988;6.314;2023-02-01T06:47:30;25.47;;;5.60;;
3949;SDS011;53057;50.988;6.314;2023-02-01T06:49:56;14.23;;;4.03;;
3949;SDS011;53057;50.988;6.314;2023-02-01T06:52:23;33.03;;;6.17;;
3949;SDS011;53057;50.988;6.314;2023-02-01T06:54:50;25.07;;;3.33;;
3949;SDS011;53057;50.988;6.314;2023-02-01T06:57:16;25.53;;;6.83;;
3949;SDS011;53057;50.988;6.314;2023-02-01T06:59:43;21.00;;;4.53;;
3949;SDS011;53057;50.988;6.314;2023-02-01T07:02:12;28.00;;;6.37;;
3949;SDS011;53057;50.988;6.314;2023-02-01T07:04:39;15.87;;;5.07;;
3949;SDS011;53057;50.988;6.314;2023-02-01T07:07:06;10.43;;;4.30;;
3949;SDS011;53057;50.988;6.314;2023-02-01T07:09:32;26.27;;;5.90;;
3949;SDS011;53057;50.988;6.314;2023-02-01T07:11:59;23.37;;;4.13;;
3949;SDS011;53057;50.988;6.314;2023-02-01T07:14:26;20.53;;;5.13;;
3949;SDS011;53057;50.988;6.314;2023-02-01T07:16:52;17.80;;;5.70;;
3949;SDS011;53057;50.988;6.314;2023-02-01T07:19:19;41.17;;;5.87;;
3949;SDS011;53057;50.988;6.314;2023-02-01T07:21:45;26.77;;;5.10;;
3949;SDS011;53057;50.988;6.314;2023-02-01T07:24:12;29.30;;;5.40;;
3949;SDS011;53057;50.988;6.314;2023-02-01T07:26:38;22.13;;;4.70;;
3949;SDS011;53057;50.988;6.314;2023-02-01T07:29:05;21.50;;;5.57;;
3949;SDS011;53057;50.988;6.314;2023-02-01T07:31:32;29.80;;;4.87;;
3949;SDS011;53057;50.988;6.314;2023-02-01T07:33:58;28.33;;;5.30;;
3949;SDS011;53057;50.988;6.314;2023-02-01T07:36:25;25.97;;;5.63;;
3949;SDS011;53057;50.988;6.314;2023-02-01T07:38:52;25.07;;;5.30;;
3949;SDS011;53057;50.988;6.314;2023-02-01T07:41:21;26.97;;;6.23;;
3949;SDS011;53057;50.988;6.314;2023-02-01T07:43:48;29.90;;;6.50;;
3949;SDS011;53057;50.988;6.314;2023-02-01T07:46:17;27.80;;;6.13;;
3949;SDS011;53057;50.988;6.314;2023-02-01T07:48:43;28.50;;;5.63;;
3949;SDS011;53057;50.988;6.314;2023-02-01T07:51:11;26.40;;;5.87;;
3949;SDS011;53057;50.988;6.314;2023-02-01T07:53:38;33.23;;;4.70;;
3949;SDS011;53057;50.988;6.314;2023-02-01T07:56:09;24.67;;;5.37;;
3949;SDS011;53057;50.988;6.314;2023-02-01T07:58:36;38.00;;;7.10;;
3949;SDS011;53057;50.988;6.314;2023-02-01T08:01:03;33.27;;;4.40;;
3949;SDS011;53057;50.988;6.314;2023-02-01T08:03:48;27.73;;;4.30;;
3949;SDS011;53057;50.988;6.314;2023-02-01T08:06:15;19.10;;;5.00;;
3949;SDS011;53057;50.988;6.314;2023-02-01T08:08:42;16.83;;;4.30;;
3949;SDS011;53057;50.988;6.314;2023-02-01T08:11:11;27.77;;;6.00;;
3949;SDS011;53057;50.988;6.314;2023-02-01T08:13:38;23.73;;;4.13;;
3949;SDS011;53057;50.988;6.314;2023-02-01T08:16:05;10.10;;;4.70;;
3949;SDS011;53057;50.988;6.314;2023-02-01T08:18:33;15.90;;;6.17;;
3949;SDS011;53057;50.988;6.314;2023-02-01T08:21:03;28.30;;;5.70;;
3949;SDS011;53057;50.988;6.314;2023-02-01T08:23:30;28.77;;;4.33;;
3949;SDS011;53057;50.988;6.314;2023-02-01T08:26:04;18.40;;;4.80;;
3949;SDS011;53057;50.988;6.314;2023-02-01T08:28:31;21.30;;;4.67;;
3949;SDS011;53057;50.988;6.314;2023-02-01T08:30:57;24.43;;;6.70;;
3949;SDS011;53057;50.988;6.314;2023-02-01T08:33:24;14.20;;;5.10;;
3949;SDS011;53057;50.988;6.314;2023-02-01T08:35:51;27.03;;;4.63;;
3949;SDS011;53057;50.988;6.314;2023-02-01T08:38:17;17.13;;;3.90;;
3949;SDS011;53057;50.988;6.314;2023-02-01T08:40:44;17.03;;;4.60;;
3949;SDS011;53057;50.988;6.314;2023-02-01T08:43:11;44.73;;;7.20;;
3949;SDS011;53057;50.988;6.314;2023-02-01T08:45:39;11.90;;;3.73;;
3949;SDS011;53057;50.988;6.314;2023-02-01T08:48:05;26.43;;;6.10;;
3949;SDS011;53057;50.988;6.314;2023-02-01T08:50:32;24.47;;;4.73;;
3949;SDS011;53057;50.988;6.314;2023-02-01T08:52:58;20.10;;;6.57;;
3949;SDS011;53057;50.988;6.314;2023-02-01T08:55:25;23.67;;;6.50;;
3949;SDS011;53057;50.988;6.314;2023-02-01T08:57:52;26.90;;;4.53;;
3949;SDS011;53057;50.988;6.314;2023-02-01T09:00:19;34.33;;;4.70;;
3949;SDS011;53057;50.988;6.314;2023-02-01T09:02:46;16.77;;;4.20;;
3949;SDS011;53057;50.988;6.314;2023-02-01T09:05:13;28.93;;;4.60;;
3949;SDS011;53057;50.988;6.314;2023-02-01T09:07:42;16.60;;;4.60;;
3949;SDS011;53057;50.988;6.314;2023-02-01T09:10:09;29.70;;;8.20;;
3949;SDS011;53057;50.988;6.314;2023-02-01T09:12:35;25.80;;;5.20;;
3949;SDS011;53057;50.988;6.314;2023-02-01T09:15:02;9.40;;;3.00;;
3949;SDS011;53057;50.988;6.314;2023-02-01T09:17:30;16.87;;;5.20;;
3949;SDS011;53057;50.988;6.314;2023-02-01T09:19:56;19.87;;;6.00;;
3949;SDS011;53057;50.988;6.314;2023-02-01T09:22:23;13.80;;;4.47;;
3949;SDS011;53057;50.988;6.314;2023-02-01T09:24:50;19.57;;;5.97;;
3949;SDS011;53057;50.988;6.314;2023-02-01T09:27:18;18.97;;;4.77;;
3949;SDS011;53057;50.988;6.314;2023-02-01T09:29:45;31.57;;;4.97;;
3949;SDS011;53057;50.988;6.314;2023-02-01T09:32:15;22.43;;;3.20;;
3949;SDS011;53057;50.988;6.314;2023-02-01T09:34:43;14.60;;;3.93;;
3949;SDS011;53057;50.988;6.314;2023-02-01T09:37:09;13.83;;;4.47;;
3949;SDS011;53057;50.988;6.314;2023-02-01T09:39:36;20.37;;;4.90;;
3949;SDS011;53057;50.988;6.314;2023-02-01T09:47:30;23.37;;;5.37;;
3949;SDS011;53057;50.988;6.314;2023-02-01T09:50:02;24.43;;;4.90;;
3949;SDS011;53057;50.988;6.314;2023-02-01T09:52:31;17.60;;;3.73;;
3949;SDS011;53057;50.988;6.314;2023-02-01T09:55:00;24.83;;;5.03;;
3949;SDS011;53057;50.988;6.314;2023-02-01T09:57:47;17.77;;;4.30;;
3949;SDS011;53057;50.988;6.314;2023-02-01T10:00:19;15.83;;;5.20;;
3949;SDS011;53057;50.988;6.314;2023-02-01T10:02:48;13.60;;;5.30;;
3949;SDS011;53057;50.988;6.314;2023-02-01T10:05:16;20.63;;;5.47;;
3949;SDS011;53057;50.988;6.314;2023-02-01T10:07:56;11.10;;;4.70;;
3949;SDS011;53057;50.988;6.314;2023-02-01T10:10:30;20.97;;;8.53;;
3949;SDS011;53057;50.988;6.314;2023-02-01T10:15:52;13.83;;;4.90;;
3949;SDS011;53057;50.988;6.314;2023-02-01T10:18:28;37.23;;;7.77;;
3949;SDS011;53057;50.988;6.314;2023-02-01T10:21:06;17.10;;;5.90;;
3949;SDS011;53057;50.988;6.314;2023-02-01T10:26:13;19.33;;;3.87;;
3949;SDS011;53057;50.988;6.314;2023-02-01T10:28:44;27.10;;;6.03;;
3949;SDS011;53057;50.988;6.314;2023-02-01T10:31:12;22.47;;;4.77;;
3949;SDS011;53057;50.988;6.314;2023-02-01T10:33:51;39.17;;;7.30;;
3949;SDS011;53057;50.988;6.314;2023-02-01T10:38:48;16.67;;;5.00;;
3949;SDS011;53057;50.988;6.314;2023-02-01T10:41:19;14.20;;;3.83;;
3949;SDS011;53057;50.988;6.314;2023-02-01T10:43:53;16.83;;;5.13;;
3949;SDS011;53057;50.988;6.314;2023-02-01T10:46:22;22.00;;;5.00;;
3949;SDS011;53057;50.988;6.314;2023-02-01T10:48:50;21.70;;;5.07;;
3949;SDS011;53057;50.988;6.314;2023-02-01T10:51:20;31.60;;;5.90;;
3949;SDS011;53057;50.988;6.314;2023-02-01T10:53:52;29.23;;;6.23;;
3949;SDS011;53057;50.988;6.314;2023-02-01T10:56:23;14.00;;;4.27;;
3949;SDS011;53057;50.988;6.314;2023-02-01T10:58:50;24.40;;;5.53;;
3949;SDS011;53057;50.988;6.314;2023-02-01T11:03:54;27.23;;;5.93;;
3949;SDS011;53057;50.988;6.314;2023-02-01T11:08:49;25.97;;;6.53;;
3949;SDS011;53057;50.988;6.314;2023-02-01T11:11:16;24.20;;;6.60;;
3949;SDS011;53057;50.988;6.314;2023-02-01T11:13:51;24.17;;;5.70;;
3949;SDS011;53057;50.988;6.314;2023-02-01T11:16:18;32.90;;;5.60;;
3949;SDS011;53057;50.988;6.314;2023-02-01T11:18:44;23.70;;;5.03;;
3949;SDS011;53057;50.988;6.314;2023-02-01T11:21:12;14.80;;;5.00;;
3949;SDS011;53057;50.988;6.314;2023-02-01T11:23:41;28.50;;;4.70;;
3949;SDS011;53057;50.988;6.314;2023-02-01T11:26:10;16.73;;;4.63;;
3949;SDS011;53057;50.988;6.314;2023-02-01T11:28:38;14.53;;;4.03;;
3949;SDS011;53057;50.988;6.314;2023-02-01T11:31:07;15.00;;;3.10;;
3949;SDS011;53057;50.988;6.314;2023-02-01T11:33:36;12.70;;;3.87;;
3949;SDS011;53057;50.988;6.314;2023-02-01T11:36:14;27.90;;;5.10;;
3949;SDS011;53057;50.988;6.314;2023-02-01T11:38:45;9.07;;;3.60;;
3949;SDS011;53057;50.988;6.314;2023-02-01T11:41:25;25.77;;;4.90;;
3949;SDS011;53057;50.988;6.314;2023-02-01T11:43:56;18.37;;;4.17;;
3949;SDS011;53057;50.988;6.314;2023-02-01T11:46:27;14.63;;;4.27;;
3949;SDS011;53057;50.988;6.314;2023-02-01T11:48:55;8.00;;;3.47;;
3949;SDS011;53057;50.988;6.314;2023-02-01T11:51:44;27.43;;;5.63;;
3949;SDS011;53057;50.988;6.314;2023-02-01T11:57:04;24.83;;;4.97;;
3949;SDS011;53057;50.988;6.314;2023-02-01T12:02:17;25.27;;;5.80;;
3949;SDS011;53057;50.988;6.314;2023-02-01T12:04:50;14.70;;;3.90;;
3949;SDS011;53057;50.988;6.314;2023-02-01T12:17:59;18.40;;;5.10;;
3949;SDS011;53057;50.988;6.314;2023-02-01T12:20:31;23.67;;;5.33;;
3949;SDS011;53057;50.988;6.314;2023-02-01T12:23:19;24.23;;;4.20;;
3949;SDS011;53057;50.988;6.314;2023-02-01T12:26:03;20.83;;;7.27;;
3949;SDS011;53057;50.988;6.314;2023-02-01T12:28:41;20.93;;;8.37;;
3949;SDS011;53057;50.988;6.314;2023-02-01T12:34:05;26.80;;;5.03;;
3949;SDS011;53057;50.988;6.314;2023-02-01T12:36:47;12.93;;;4.23;;
3949;SDS011;53057;50.988;6.314;2023-02-01T12:39:23;14.83;;;4.37;;
3949;SDS011;53057;50.988;6.314;2023-02-01T12:42:11;18.73;;;6.00;;
3949;SDS011;53057;50.988;6.314;2023-02-01T12:47:09;22.03;;;4.90;;
3949;SDS011;53057;50.988;6.314;2023-02-01T12:49:44;24.13;;;6.93;;
3949;SDS011;53057;50.988;6.314;2023-02-01T12:52:20;28.20;;;5.80;;
3949;SDS011;53057;50.988;6.314;2023-02-01T12:55:06;18.60;;;5.47;;
3949;SDS011;53057;50.988;6.314;2023-02-01T12:57:39;15.30;;;4.37;;
3949;SDS011;53057;50.988;6.314;2023-02-01T13:00:24;7.90;;;3.00;;
3949;SDS011;53057;50.988;6.314;2023-02-01T13:05:20;22.60;;;4.80;;
3949;SDS011;53057;50.988;6.314;2023-02-01T13:07:52;32.07;;;6.60;;
3949;SDS011;53057;50.988;6.314;2023-02-01T13:10:36;23.67;;;7.10;;
3949;SDS011;53057;50.988;6.314;2023-02-01T13:13:20;16.80;;;5.60;;
3949;SDS011;53057;50.988;6.314;2023-02-01T13:18:35;28.20;;;5.40;;
3949;SDS011;53057;50.988;6.314;2023-02-01T13:21:20;25.57;;;4.53;;
3949;SDS011;53057;50.988;6.314;2023-02-01T13:23:49;31.90;;;4.33;;
3949;SDS011;53057;50.988;6.314;2023-02-01T13:26:16;16.10;;;3.83;;
3949;SDS011;53057;50.988;6.314;2023-02-01T13:28:57;15.73;;;2.97;;
3949;SDS011;53057;50.988;6.314;2023-02-01T13:37:11;23.10;;;3.97;;
3949;SDS011;53057;50.988;6.314;2023-02-01T13:47:13;20.73;;;4.67;;
3949;SDS011;53057;50.988;6.314;2023-02-01T13:49:43;21.97;;;5.00;;
3949;SDS011;53057;50.988;6.314;2023-02-01T13:52:24;11.13;;;3.00;;
3949;SDS011;53057;50.988;6.314;2023-02-01T13:55:00;11.00;;;2.90;;
3949;SDS011;53057;50.988;6.314;2023-02-01T13:57:34;21.33;;;3.40;;
3949;SDS011;53057;50.988;6.314;2023-02-01T14:26:41;18.10;;;3.63;;
3949;SDS011;53057;50.988;6.314;2023-02-01T14:29:30;24.83;;;4.47;;
3949;SDS011;53057;50.988;6.314;2023-02-01T14:32:06;24.80;;;4.10;;
3949;SDS011;53057;50.988;6.314;2023-02-01T14:34:40;12.97;;;2.73;;
3949;SDS011;53057;50.988;6.314;2023-02-01T14:44:51;25.93;;;3.87;;
3949;SDS011;53057;50.988;6.314;2023-02-01T14:47:28;16.90;;;3.50;;
3949;SDS011;53057;50.988;6.314;2023-02-01T14:52:38;7.37;;;2.67;;
3949;SDS011;53057;50.988;6.314;2023-02-01T14:55:16;13.50;;;4.80;;
3949;SDS011;53057;50.988;6.314;2023-02-01T14:57:45;17.80;;;3.70;;
3949;SDS011;53057;50.988;6.314;2023-02-01T15:02:43;24.07;;;3.37;;
3949;SDS011;53057;50.988;6.314;2023-02-01T15:05:30;19.53;;;3.43;;
3949;SDS011;53057;50.988;6.314;2023-02-01T15:08:03;13.33;;;3.03;;
3949;SDS011;53057;50.988;6.314;2023-02-01T15:10:31;11.67;;;3.33;;
3949;SDS011;53057;50.988;6.314;2023-02-01T15:12:58;14.57;;;4.97;;
3949;SDS011;53057;50.988;6.314;2023-02-01T15:15:25;18.03;;;3.20;;
3949;SDS011;53057;50.988;6.314;2023-02-01T15:17:56;15.10;;;3.13;;
3949;SDS011;53057;50.988;6.314;2023-02-01T15:20:27;15.27;;;4.03;;
3949;SDS011;53057;50.988;6.314;2023-02-01T15:23:03;14.07;;;4.23;;
3949;SDS011;53057;50.988;6.314;2023-02-01T15:25:37;20.60;;;3.80;;
3949;SDS011;53057;50.988;6.314;2023-02-01T15:28:05;11.83;;;4.20;;
3949;SDS011;53057;50.988;6.314;2023-02-01T15:30:33;12.43;;;3.30;;
3949;SDS011;53057;50.988;6.314;2023-02-01T15:35:40;14.73;;;3.13;;
3949;SDS011;53057;50.988;6.314;2023-02-01T15:40:54;13.07;;;4.27;;
3949;SDS011;53057;50.988;6.314;2023-02-01T15:43:22;10.80;;;3.90;;
3949;SDS011;53057;50.988;6.314;2023-02-01T15:45:49;23.43;;;5.33;;
3949;SDS011;53057;50.988;6.314;2023-02-01T15:48:22;12.23;;;3.17;;
3949;SDS011;53057;50.988;6.314;2023-02-01T15:50:50;16.63;;;2.50;;
3949;SDS011;53057;50.988;6.314;2023-02-01T15:53:19;9.77;;;3.77;;
3949;SDS011;53057;50.988;6.314;2023-02-01T15:55:47;23.87;;;5.67;;
3949;SDS011;53057;50.988;6.314;2023-02-01T15:58:21;13.13;;;2.93;;
3949;SDS011;53057;50.988;6.314;2023-02-01T16:00:49;26.97;;;3.83;;
3949;SDS011;53057;50.988;6.314;2023-02-01T16:06:07;8.37;;;2.80;;
3949;SDS011;53057;50.988;6.314;2023-02-01T16:08:34;25.43;;;4.57;;
3949;SDS011;53057;50.988;6.314;2023-02-01T16:13:36;7.57;;;3.17;;
3949;SDS011;53057;50.988;6.314;2023-02-01T16:16:03;22.10;;;4.53;;
3949;SDS011;53057;50.988;6.314;2023-02-01T16:18:34;16.93;;;3.33;;
3949;SDS011;53057;50.988;6.314;2023-02-01T16:21:01;27.90;;;6.13;;
3949;SDS011;53057;50.988;6.314;2023-02-01T16:23:28;22.30;;;5.37;;
3949;SDS011;53057;50.988;6.314;2023-02-01T16:25:57;27.67;;;4.43;;
3949;SDS011;53057;50.988;6.314;2023-02-01T16:28:24;18.97;;;4.83;;
3949;SDS011;53057;50.988;6.314;2023-02-01T16:30:52;13.43;;;4.53;;
3949;SDS011;53057;50.988;6.314;2023-02-01T16:33:19;18.63;;;4.20;;
3949;SDS011;53057;50.988;6.314;2023-02-01T16:35:51;11.97;;;3.80;;
3949;SDS011;53057;50.988;6.314;2023-02-01T16:38:18;23.27;;;6.77;;
3949;SDS011;53057;50.988;6.314;2023-02-01T16:40:48;11.70;;;4.67;;
3949;SDS011;53057;50.988;6.314;2023-02-01T16:43:16;40.93;;;5.33;;
3949;SDS011;53057;50.988;6.314;2023-02-01T16:45:44;23.70;;;5.00;;
3949;SDS011;53057;50.988;6.314;2023-02-01T16:48:19;26.60;;;6.27;;
3949;SDS011;53057;50.988;6.314;2023-02-01T16:50:48;23.03;;;6.20;;
3949;SDS011;53057;50.988;6.314;2023-02-01T16:53:16;15.17;;;4.37;;
3949;SDS011;53057;50.988;6.314;2023-02-01T16:55:43;9.20;;;3.47;;
3949;SDS011;53057;50.988;6.314;2023-02-01T16:58:10;11.83;;;4.33;;
3949;SDS011;53057;50.988;6.314;2023-02-01T17:00:36;12.67;;;4.00;;
3949;SDS011;53057;50.988;6.314;2023-02-01T17:03:04;22.50;;;5.20;;
3949;SDS011;53057;50.988;6.314;2023-02-01T17:05:31;18.07;;;3.93;;
3949;SDS011;53057;50.988;6.314;2023-02-01T17:07:59;28.47;;;5.20;;
3949;SDS011;53057;50.988;6.314;2023-02-01T17:10:30;22.00;;;5.53;;
3949;SDS011;53057;50.988;6.314;2023-02-01T17:13:00;24.53;;;6.07;;
3949;SDS011;53057;50.988;6.314;2023-02-01T17:15:27;22.27;;;5.00;;